Historique des mesures à Cassis (13260), France
Quotidien Résumé Septembre 6, 2021 Unités:  Métrique/US    US   Métrique
Quotidien Hebdomadaire Mensuel Annuel
  Maximum: Minimum: Moyenne:
Température: 73.2 °F /  22.9 °C 52.7 °F /  11.5 °C 64 °F /  17.8 °C
Point de rosée: 56.8 °F /  13.8 °C 40.6 °F /  4.8 °C 48.4 °F /  9.1 °C
Humidité: 78% 40% 58%
Vitesse du vent: 10.7mph /  17.3km/h - 2.2mph /  3.5km/h
Rafales: 14.1mph /  22.7km/h - -
Vent- - SW
Pression: 29.9 in /  1013.4 hPa 29.9 in /  1011.1 hPa -
Précipitations: 0 in /  0.0 mm    
Historical Graphs
 
 
Mesures pour : Septembre 6, 2021
Heure Temperature Point de rosée Pression Vent Vitesse du vent Rafales Humidité Pluie (par heure)
01:11 58.3 °F /  14.6 °C 41.7 °F /  5.4 °C 29.9in /  1012.4hPa West 2mph /  3.2km/h 3.1mph /  5km/h 54% 0in /  0.0mm
02:11 57 °F /  13.9 °C 41.5 °F /  5.3 °C 29.9in /  1012.3hPa WNW 3.8mph /  6.1km/h 4.7mph /  7.6km/h 56% 0in /  0.0mm
03:10 55.2 °F /  12.9 °C 41.5 °F /  5.3 °C 29.9in /  1012.0hPa Calm   3.8mph /  6.1km/h 60% 0in /  0.0mm
04:10 54.7 °F /  12.6 °C 40.6 °F /  4.8 °C 29.9in /  1011.6hPa Calm   0.7mph /  1.1km/h 59% 0in /  0.0mm
05:10 53.8 °F /  12.1 °C 42.3 °F /  5.7 °C 29.9in /  1011.8hPa Calm   5.8mph /  9.4km/h 65% 0in /  0.0mm
06:11 53.4 °F /  11.9 °C 41.5 °F /  5.3 °C 29.9in /  1011.3hPa WNW 2.5mph /  4km/h 6mph /  9.7km/h 64% 0in /  0.0mm
07:11 52.7 °F /  11.5 °C 40.8 °F /  4.9 °C 29.9in /  1012.0hPa NW 1.8mph /  2.9km/h 3.4mph /  5.4km/h 64% 0in /  0.0mm
08:11 70.5 °F /  21.4 °C 45.1 °F /  7.3 °C 29.9in /  1012.9hPa WNW 2.9mph /  4.7km/h 9.2mph /  14.8km/h 40% 0in /  0.0mm
09:10 63.7 °F /  17.6 °C 42.4 °F /  5.8 °C 29.9in /  1013.2hPa West 3.6mph /  5.8km/h 9.4mph /  15.1km/h 46% 0in /  0.0mm
10:11 63.7 °F /  17.6 °C 44.6 °F /  7 °C 29.9in /  1012.9hPa NW 2mph /  3.2km/h 14.1mph /  22.7km/h 50% 0in /  0.0mm
11:10 67.3 °F /  19.6 °C 46.9 °F /  8.3 °C 29.9in /  1013.0hPa SSW 10.7mph /  17.3km/h 10.7mph /  17.3km/h 48% 0in /  0.0mm
12:11 70 °F /  21.1 °C 48.2 °F /  9 °C 29.9in /  1013.4hPa West 3.1mph /  5km/h 13.7mph /  22km/h 46% 0in /  0.0mm
13:10 70.7 °F /  21.5 °C 50 °F /  10 °C 29.9in /  1012.5hPa SW 2.9mph /  4.7km/h 10.5mph /  16.9km/h 48% 0in /  0.0mm
14:11 73.2 °F /  22.9 °C 55 °F /  12.8 °C 29.9in /  1012.1hPa SE 1.8mph /  2.9km/h 8.5mph /  13.7km/h 53% 0in /  0.0mm
15:10 73 °F /  22.8 °C 55.8 °F /  13.2 °C 29.9in /  1011.6hPa ESE 3.8mph /  6.1km/h 8.3mph /  13.3km/h 55% 0in /  0.0mm
16:10 72.7 °F /  22.6 °C 55.4 °F /  13 °C 29.9in /  1011.1hPa Calm   7.6mph /  12.2km/h 55% 0in /  0.0mm
17:10 71.4 °F /  21.9 °C 56.3 °F /  13.5 °C 29.9in /  1011.2hPa SSE 2.5mph /  4km/h 6.5mph /  10.4km/h 59% 0in /  0.0mm
18:11 69.6 °F /  20.9 °C 56.8 °F /  13.8 °C 29.9in /  1011.3hPa SE 2mph /  3.2km/h 3.4mph /  5.4km/h 64% 0in /  0.0mm
19:10 66.9 °F /  19.4 °C 55.9 °F /  13.3 °C 29.9in /  1011.5hPa Calm   3.1mph /  5km/h 68% 0in /  0.0mm
22:10 63.3 °F /  17.4 °C 55.9 °F /  13.3 °C 29.9in /  1012.5hPa Calm   1.4mph /  2.2km/h 77% 0in /  0.0mm
23:11 63 °F /  17.2 °C 55.9 °F /  13.3 °C 29.9in /  1012.3hPa Calm   2.2mph /  3.6km/h 78% 0in /  0.0mm
Observations météo à CASSIS
WU-History script by Weather Underground - 2 mb